| time (UTC) | temp F | wind direction | speed MPH | gust MPH | rain 1hr in | rain 24hr in | rain mn in | humidity % | barometer mb |
| 20260507152002 | 61 | 0 | 4.0 | 24.0 | 0.00 | 0.00 | 0.00 | 22 | |
| 20260507151156 | 61 | 0 | 13.0 | 17.0 | 0.00 | 0.00 | 0.00 | 22 | |
| 20260507150156 | 62 | 0 | 24.0 | 24.0 | 0.00 | 0.00 | 0.00 | 22 | |
| 20260507150002 | 63 | 0 | 0.0 | 8.0 | 0.00 | 0.00 | 0.00 | 22 | |
| 20260507145156 | 63 | 0 | 0.0 | 4.0 | 0.00 | 0.00 | 0.00 | 22 | |
| 20260507144156 | 63 | 0 | 8.0 | 15.0 | 0.00 | 0.00 | 0.00 | 22 | |
| 20260507143157 | 63 | 0 | 15.0 | 15.0 | 0.00 | 0.00 | 0.00 | 22 | |
| 20260507142157 | 63 | 0 | 0.0 | 20.0 | 0.00 | 0.00 | 0.00 | 22 | |
| 20260507142002 | 62 | 0 | 20.0 | 26.0 | 0.00 | 0.00 | 0.00 | 22 | |
| 20260507141157 | 63 | 0 | 15.0 | 20.0 | 0.00 | 0.00 | 0.00 | 22 | |
| 20260507140157 | 66 | 0 | 11.0 | 15.0 | 0.00 | 0.00 | 0.00 | 21 | |
| 20260507140002 | 66 | 0 | 11.0 | 15.0 | 0.00 | 0.00 | 0.00 | 21 | |
| 20260507135157 | 63 | 0 | 20.0 | 26.0 | 0.00 | 0.00 | 0.00 | 22 | |
| 20260507134157 | 65 | 0 | 6.0 | 8.0 | 0.00 | 0.00 | 0.00 | 21 | |
| 20260507134002 | 64 | 0 | 2.0 | 8.0 | 0.00 | 0.00 | 0.00 | 21 | |
| 20260507133157 | 63 | 0 | 2.0 | 2.0 | 0.00 | 0.00 | 0.00 | 22 | |
| 20260507132157 | 62 | 0 | 0.0 | 11.0 | 0.00 | 0.00 | 0.00 | 22 | |
| 20260507131157 | 61 | 0 | 13.0 | 22.0 | 0.00 | 0.00 | 0.00 | 22 | |
| 20260507130156 | 62 | 0 | 0.0 | 24.0 | 0.00 | 0.00 | 0.00 | 22 | |
| 20260507130002 | 62 | 0 | 17.0 | 24.0 | 0.00 | 0.00 | 0.00 | 22 | |
| 20260507125156 | 63 | 0 | 15.0 | 17.0 | 0.00 | 0.00 | 0.00 | 22 | |
| 20260507124156 | 62 | 0 | 0.0 | 17.0 | 0.00 | 0.00 | 0.00 | 22 | |
| 20260507124003 | 61 | 0 | 17.0 | 17.0 | 0.00 | 0.00 | 0.00 | 22 | |
| 20260507123156 | 62 | 0 | 2.0 | 4.0 | 0.00 | 0.00 | 0.00 | 22 | |
| 20260507122156 | 62 | 0 | 0.0 | 6.0 | 0.00 | 0.00 | 0.00 | 22 | |
| 20260507121157 | 63 | 0 | 0.0 | 4.0 | 0.00 | 0.00 | 0.00 | 22 | |
| 20260507120157 | 63 | 0 | 17.0 | 17.0 | 0.00 | 0.00 | 0.00 | 22 | |
| 20260507115157 | 62 | 0 | 0.0 | 2.0 | 0.00 | 0.00 | 0.00 | 22 | |
| 20260507114157 | 60 | 0 | 0.0 | 0.0 | 0.00 | 0.00 | 0.00 | 23 | |
| 20260507114003 | 59 | 0 | 0.0 | 0.0 | 0.00 | 0.00 | 0.00 | 23 | |
| 20260507113157 | 58 | 0 | 0.0 | 11.0 | 0.00 | 0.00 | 0.00 | 23 | |
| 20260507112157 | 57 | 0 | 0.0 | 11.0 | 0.00 | 0.00 | 0.00 | 25 | |
| 20260507112002 | 56 | 0 | 11.0 | 15.0 | 0.00 | 0.00 | 0.00 | 25 | |
| 20260507111157 | 57 | 0 | 0.0 | 8.0 | 0.00 | 0.00 | 0.00 | 29 | |
| 20260507110156 | 56 | 0 | 2.0 | 13.0 | 0.00 | 0.00 | 0.00 | 31 | |
| 20260507110002 | 55 | 0 | 13.0 | 13.0 | 0.00 | 0.00 | 0.00 | 31 | |
| 20260507104156 | 53 | 0 | 17.0 | 24.0 | 0.00 | 0.00 | 0.00 | 36 | |
| 20260507104003 | 53 | 0 | 2.0 | 6.0 | 0.00 | 0.00 | 0.00 | 36 | |
| 20260507103157 | 52 | 0 | 0.0 | 0.0 | 0.00 | 0.00 | 0.00 | 39 | |
| 20260507102156 | 51 | 0 | 6.0 | 13.0 | 0.00 | 0.00 | 0.00 | 40 | |
| 20260507102002 | 51 | 0 | 13.0 | 13.0 | 0.00 | 0.00 | 0.00 | 39 | |
| 20260507101157 | 51 | 0 | 0.0 | 11.0 | 0.00 | 0.00 | 0.00 | 40 | |
| 20260507100157 | 51 | 0 | 0.0 | 2.0 | 0.00 | 0.00 | 0.00 | 42 | |
| 20260507100002 | 51 | 0 | 0.0 | 11.0 | 0.00 | 0.00 | 0.00 | 43 | |
| 20260507095157 | 50 | 0 | 0.0 | 2.0 | 0.00 | 0.00 | 0.00 | 43 | |
| 20260507094157 | 50 | 0 | 2.0 | 2.0 | 0.00 | 0.00 | 0.00 | 46 | |
| 20260507094003 | 50 | 0 | 0.0 | 13.0 | 0.00 | 0.00 | 0.00 | 46 | |
| 20260507093157 | 49 | 0 | 0.0 | 24.0 | 0.00 | 0.00 | 0.00 | 46 | |
| 20260507092157 | 49 | 0 | 0.0 | 2.0 | 0.00 | 0.00 | 0.00 | 47 | |
| 20260507091157 | 48 | 0 | 2.0 | 6.0 | 0.00 | 0.00 | 0.00 | 48 | |
| 20260507090156 | 48 | 0 | 0.0 | 0.0 | 0.00 | 0.00 | 0.00 | 49 | |
| 20260507090002 | 48 | 0 | 0.0 | 4.0 | 0.00 | 0.00 | 0.00 | 51 | |
| 20260507085156 | 47 | 0 | 4.0 | 4.0 | 0.00 | 0.00 | 0.00 | 52 | |
| 20260507084156 | 47 | 0 | 0.0 | 17.0 | 0.00 | 0.00 | 0.00 | 52 | |
| 20260507084002 | 47 | 0 | 0.0 | 17.0 | 0.00 | 0.00 | 0.00 | 52 | |
| 20260507083156 | 46 | 0 | 0.0 | 13.0 | 0.00 | 0.00 | 0.00 | 53 | |
| 20260507082156 | 46 | 0 | 0.0 | 0.0 | 0.00 | 0.00 | 0.00 | 54 | |
| 20260507082002 | 46 | 0 | 0.0 | 0.0 | 0.00 | 0.00 | 0.00 | 54 | |
| 20260507081156 | 46 | 0 | 0.0 | 0.0 | 0.00 | 0.00 | 0.00 | 55 | |
| 20260507080157 | 46 | 0 | 6.0 | 6.0 | 0.00 | 0.00 | 0.00 | 55 | |
| 20260507080002 | 46 | 0 | 0.0 | 0.0 | 0.00 | 0.00 | 0.00 | 55 | |
| 20260507075157 | 46 | 0 | 0.0 | 0.0 | 0.00 | 0.00 | 0.00 | 56 | |
| 20260507074157 | 45 | 0 | 0.0 | 0.0 | 0.00 | 0.00 | 0.00 | 58 | |
| 20260507074003 | 45 | 0 | 0.0 | 0.0 | 0.00 | 0.00 | 0.00 | 58 | |
| 20260507073157 | 45 | 0 | 0.0 | 0.0 | 0.00 | 0.00 | 0.00 | 58 | |
| 20260507072157 | 45 | 0 | 4.0 | 4.0 | 0.00 | 0.00 | 0.00 | 59 | |
| 20260507072001 | 45 | 0 | 0.0 | 4.0 | 0.00 | 0.00 | 0.00 | 59 | |
| 20260507071157 | 45 | 0 | 0.0 | 0.0 | 0.00 | 0.00 | 0.00 | 60 | |
| 20260507070157 | 44 | 0 | 0.0 | 2.0 | 0.00 | 0.00 | 0.00 | 62 | |
| 20260507070002 | 44 | 0 | 0.0 | 2.0 | 0.00 | 0.00 | 0.00 | 62 | |
| 20260507065156 | 44 | 0 | 0.0 | 0.0 | 0.00 | 0.00 | 0.00 | 63 | |
| 20260507064156 | 44 | 0 | 0.0 | 0.0 | 0.00 | 0.00 | 0.00 | 64 | |
| 20260507064002 | 44 | 0 | 0.0 | 0.0 | 0.00 | 0.00 | 0.00 | 64 | |
| 20260507063156 | 44 | 0 | 0.0 | 0.0 | 0.00 | 0.00 | 0.00 | 66 | |
| 20260507062156 | 43 | 0 | 0.0 | 0.0 | 0.00 | 0.00 | 0.00 | 67 | |
| 20260507062002 | 43 | 0 | 0.0 | 0.0 | 0.00 | 0.00 | 0.00 | 67 | |
| 20260507061156 | 43 | 0 | 0.0 | 0.0 | 0.00 | 0.00 | 0.00 | 69 | |
| 20260507060157 | 43 | 0 | 0.0 | 0.0 | 0.00 | 0.00 | 0.00 | 70 | |
| 20260507060002 | 43 | 0 | 0.0 | 0.0 | 0.00 | 0.00 | 0.00 | 70 | |
| 20260507055157 | 42 | 0 | 0.0 | 0.0 | 0.00 | 0.00 | 0.00 | 71 | |
| 20260507054157 | 42 | 0 | 0.0 | 0.0 | 0.00 | 0.00 | 0.00 | 71 | |
| 20260507054002 | 42 | 0 | 0.0 | 0.0 | 0.00 | 0.00 | 0.00 | 71 | |
| 20260507053157 | 41 | 0 | 0.0 | 0.0 | 0.00 | 0.00 | 0.00 | 73 | |
| 20260507052157 | 41 | 0 | 0.0 | 0.0 | 0.00 | 0.00 | 0.00 | 73 | |
| 20260507052003 | 41 | 0 | 0.0 | 0.0 | 0.00 | 0.00 | 0.00 | 73 | |
| 20260507051156 | 41 | 0 | 0.0 | 0.0 | 0.00 | 0.00 | 0.00 | 73 | |
| 20260507050156 | 41 | 0 | 0.0 | 0.0 | 0.00 | 0.00 | 0.00 | 73 | |
| 20260507050001 | 41 | 0 | 0.0 | 0.0 | 0.00 | 0.00 | 0.00 | 73 | |
| 20260507045156 | 41 | 0 | 0.0 | 0.0 | 0.00 | 0.00 | 0.00 | 73 | |
| 20260507044155 | 41 | 0 | 0.0 | 0.0 | 0.00 | 0.00 | 0.00 | 72 | |
| 20260507044002 | 41 | 0 | 0.0 | 0.0 | 0.00 | 0.00 | 0.00 | 72 | |
| 20260507043155 | 41 | 0 | 0.0 | 0.0 | 0.00 | 0.00 | 0.00 | 72 | |
| 20260507042155 | 40 | 0 | 0.0 | 0.0 | 0.00 | 0.00 | 0.00 | 71 | |
| 20260507042002 | 40 | 0 | 0.0 | 0.0 | 0.00 | 0.00 | 0.00 | 71 | |
| 20260507041155 | 40 | 0 | 0.0 | 0.0 | 0.00 | 0.00 | 0.00 | 71 | |
| 20260507040155 | 40 | 0 | 0.0 | 0.0 | 0.00 | 0.00 | 0.00 | 71 | |
| 20260507040002 | 40 | 0 | 0.0 | 0.0 | 0.00 | 0.00 | 0.00 | 70 | |
| 20260507035155 | 39 | 0 | 0.0 | 0.0 | 0.00 | 0.00 | 0.00 | 70 | |
| 20260507034156 | 39 | 0 | 0.0 | 0.0 | 0.00 | 0.00 | 0.00 | 70 | |
| 20260507034003 | 39 | 0 | 0.0 | 0.0 | 0.00 | 0.00 | 0.00 | 70 | |
| 20260507033156 | 39 | 0 | 0.0 | 0.0 | 0.00 | 0.00 | 0.00 | 69 | |
| 20260507032156 | 39 | 0 | 0.0 | 0.0 | 0.00 | 0.00 | 0.00 | 69 | |
| 20260507032003 | 39 | 0 | 0.0 | 0.0 | 0.00 | 0.00 | 0.00 | 69 | |
| 20260507031156 | 39 | 0 | 0.0 | 0.0 | 0.00 | 0.00 | 0.00 | 68 | |
| 20260507030156 | 39 | 0 | 0.0 | 0.0 | 0.00 | 0.00 | 0.00 | 68 | |
| 20260507030001 | 39 | 0 | 0.0 | 0.0 | 0.00 | 0.00 | 0.00 | 68 | |
| 20260507025155 | 39 | 0 | 0.0 | 0.0 | 0.00 | 0.00 | 0.00 | 67 | |
| 20260507024155 | 39 | 0 | 0.0 | 0.0 | 0.00 | 0.00 | 0.00 | 67 | |
| 20260507024002 | 39 | 0 | 0.0 | 0.0 | 0.00 | 0.00 | 0.00 | 67 | |
| 20260507023155 | 40 | 0 | 0.0 | 0.0 | 0.00 | 0.00 | 0.00 | 67 | |
| 20260507022155 | 40 | 0 | 0.0 | 0.0 | 0.00 | 0.00 | 0.00 | 67 | |
| 20260507022002 | 40 | 0 | 0.0 | 0.0 | 0.00 | 0.00 | 0.00 | 67 | |
| 20260507021155 | 40 | 0 | 0.0 | 0.0 | 0.00 | 0.00 | 0.00 | 66 | |
| 20260507020155 | 40 | 0 | 0.0 | 0.0 | 0.00 | 0.00 | 0.00 | 67 | |
| 20260507020002 | 40 | 0 | 0.0 | 0.0 | 0.00 | 0.00 | 0.00 | 67 | |
| 20260507015156 | 41 | 0 | 0.0 | 0.0 | 0.00 | 0.00 | 0.00 | 67 | |
| 20260507014156 | 41 | 0 | 0.0 | 0.0 | 0.00 | 0.00 | 0.00 | 67 | |
| 20260507014002 | 41 | 0 | 0.0 | 0.0 | 0.00 | 0.00 | 0.00 | 67 | |
| 20260507013156 | 42 | 0 | 0.0 | 0.0 | 0.00 | 0.00 | 0.00 | 68 | |
| 20260507012156 | 42 | 0 | 0.0 | 0.0 | 0.00 | 0.00 | 0.00 | 68 | |
| 20260507012002 | 42 | 0 | 0.0 | 0.0 | 0.00 | 0.00 | 0.00 | 68 | |
| 20260507011156 | 42 | 0 | 0.0 | 0.0 | 0.00 | 0.00 | 0.00 | 68 | |
| 20260507010156 | 42 | 0 | 0.0 | 0.0 | 0.00 | 0.00 | 0.00 | 68 | |
| 20260507010002 | 42 | 0 | 0.0 | 0.0 | 0.00 | 0.00 | 0.00 | 68 | |
| 20260507005156 | 42 | 0 | 0.0 | 0.0 | 0.00 | 0.00 | 0.00 | 69 | |
| 20260507004155 | 42 | 0 | 0.0 | 0.0 | 0.00 | 0.00 | 0.00 | 68 | |
| 20260507004002 | 41 | 0 | 0.0 | 0.0 | 0.00 | 0.00 | 0.00 | 68 | |
| 20260507003155 | 41 | 0 | 0.0 | 0.0 | 0.00 | 0.00 | 0.00 | 68 | |
| 20260507002155 | 41 | 0 | 0.0 | 0.0 | 0.00 | 0.00 | 0.00 | 68 | |
| 20260507002002 | 41 | 0 | 0.0 | 0.0 | 0.00 | 0.00 | 0.00 | 68 | |
| 20260507001155 | 41 | 0 | 0.0 | 0.0 | 0.00 | 0.00 | 0.00 | 67 | |
| 20260507000155 | 41 | 0 | 0.0 | 0.0 | 0.00 | 0.00 | 0.00 | 67 | |
| 20260507000002 | 41 | 0 | 0.0 | 0.0 | 0.00 | 0.00 | 0.00 | 67 | |
| 20260506235156 | 41 | 0 | 0.0 | 0.0 | 0.00 | 0.00 | 0.00 | 67 | |
| 20260506234155 | 41 | 0 | 0.0 | 0.0 | 0.00 | 0.00 | 0.00 | 66 | |
| 20260506234002 | 41 | 0 | 0.0 | 0.0 | 0.00 | 0.00 | 0.00 | 66 | |
| 20260506233156 | 41 | 0 | 0.0 | 0.0 | 0.00 | 0.00 | 0.00 | 66 | |
| 20260506232155 | 41 | 0 | 0.0 | 0.0 | 0.00 | 0.00 | 0.00 | 66 | |
| 20260506232003 | 41 | 0 | 0.0 | 0.0 | 0.00 | 0.00 | 0.00 | 66 | |
| 20260506231156 | 41 | 0 | 0.0 | 0.0 | 0.00 | 0.00 | 0.00 | 65 | |
| 20260506230156 | 40 | 0 | 0.0 | 0.0 | 0.00 | 0.00 | 0.00 | 65 | |
| 20260506225156 | 40 | 0 | 0.0 | 0.0 | 0.00 | 0.00 | 0.00 | 64 | |
| 20260506224156 | 40 | 0 | 0.0 | 0.0 | 0.00 | 0.00 | 0.00 | 62 | |
| 20260506224002 | 40 | 0 | 0.0 | 0.0 | 0.00 | 0.00 | 0.00 | 62 | |
| 20260506223155 | 40 | 0 | 0.0 | 0.0 | 0.00 | 0.00 | 0.00 | 61 | |
| 20260506222155 | 40 | 0 | 0.0 | 0.0 | 0.00 | 0.00 | 0.00 | 59 | |
| 20260506221155 | 40 | 0 | 0.0 | 0.0 | 0.00 | 0.00 | 0.00 | 58 | |
| 20260506220155 | 41 | 0 | 0.0 | 0.0 | 0.00 | 0.00 | 0.00 | 56 | |
| 20260506220002 | 41 | 0 | 0.0 | 0.0 | 0.00 | 0.00 | 0.00 | 55 | |
| 20260506215155 | 41 | 0 | 0.0 | 0.0 | 0.00 | 0.00 | 0.00 | 53 | |
| 20260506214156 | 42 | 0 | 0.0 | 0.0 | 0.00 | 0.00 | 0.00 | 52 | |
| 20260506214002 | 43 | 0 | 0.0 | 0.0 | 0.00 | 0.00 | 0.00 | 52 | |
| 20260506213155 | 44 | 0 | 0.0 | 0.0 | 0.00 | 0.00 | 0.00 | 50 | |
| 20260506212156 | 44 | 0 | 0.0 | 0.0 | 0.00 | 0.00 | 0.00 | 50 | |
| 20260506212003 | 44 | 0 | 0.0 | 0.0 | 0.00 | 0.00 | 0.00 | 50 | |
| 20260506211156 | 45 | 0 | 0.0 | 0.0 | 0.00 | 0.00 | 0.00 | 50 | |
| 20260506210156 | 45 | 0 | 0.0 | 0.0 | 0.00 | 0.00 | 0.00 | 49 | |
| 20260506210003 | 45 | 0 | 0.0 | 0.0 | 0.00 | 0.00 | 0.00 | 49 | |
| 20260506205156 | 45 | 0 | 0.0 | 0.0 | 0.00 | 0.00 | 0.00 | 48 | |
| 20260506204156 | 45 | 0 | 0.0 | 0.0 | 0.00 | 0.00 | 0.00 | 42 | |
| 20260506204002 | 45 | 0 | 0.0 | 0.0 | 0.00 | 0.00 | 0.00 | 42 | |
| 20260506203155 | 45 | 0 | 0.0 | 0.0 | 0.00 | 0.00 | 0.00 | 41 | |
| 20260506202155 | 46 | 0 | 0.0 | 0.0 | 0.00 | 0.00 | 0.00 | 39 | |
| 20260506202002 | 46 | 0 | 0.0 | 0.0 | 0.00 | 0.00 | 0.00 | 39 | |
| 20260506201155 | 47 | 0 | 0.0 | 0.0 | 0.00 | 0.00 | 0.00 | 39 | |
| 20260506200155 | 48 | 0 | 0.0 | 0.0 | 0.00 | 0.00 | 0.00 | 38 | |
| 20260506200002 | 48 | 0 | 0.0 | 0.0 | 0.00 | 0.00 | 0.00 | 38 | |
| 20260506195155 | 49 | 0 | 0.0 | 0.0 | 0.00 | 0.00 | 0.00 | 38 | |
| 20260506194156 | 50 | 0 | 0.0 | 0.0 | 0.00 | 0.00 | 0.00 | 37 | |
| 20260506194003 | 50 | 0 | 0.0 | 0.0 | 0.00 | 0.00 | 0.00 | 36 | |
| 20260506193155 | 50 | 0 | 0.0 | 0.0 | 0.00 | 0.00 | 0.00 | 35 | |
| 20260506192156 | 51 | 0 | 0.0 | 0.0 | 0.00 | 0.00 | 0.00 | 33 | |
| 20260506192003 | 51 | 0 | 0.0 | 0.0 | 0.00 | 0.00 | 0.00 | 32 | |
| 20260506191155 | 51 | 0 | 0.0 | 0.0 | 0.00 | 0.00 | 0.00 | 31 | |
| 20260506190156 | 52 | 0 | 0.0 | 0.0 | 0.00 | 0.00 | 0.00 | 28 | |
| 20260506190003 | 52 | 0 | 0.0 | 0.0 | 0.00 | 0.00 | 0.00 | 27 | |
| 20260506185156 | 53 | 0 | 0.0 | 0.0 | 0.00 | 0.00 | 0.00 | 25 | |
| 20260506184156 | 55 | 0 | 0.0 | 0.0 | 0.00 | 0.00 | 0.00 | 24 | |
| 20260506184002 | 56 | 0 | 0.0 | 0.0 | 0.00 | 0.00 | 0.00 | 23 | |
| 20260506183156 | 60 | 0 | 0.0 | 0.0 | 0.00 | 0.00 | 0.00 | 23 | |
| 20260506182155 | 59 | 0 | 0.0 | 0.0 | 0.00 | 0.00 | 0.00 | 23 | |
| 20260506182002 | 59 | 0 | 0.0 | 0.0 | 0.00 | 0.00 | 0.00 | 23 | |
| 20260506181155 | 58 | 0 | 0.0 | 0.0 | 0.00 | 0.00 | 0.00 | 23 | |
| 20260506180155 | 58 | 0 | 0.0 | 0.0 | 0.00 | 0.00 | 0.00 | 23 | |
| 20260506180002 | 59 | 0 | 0.0 | 0.0 | 0.00 | 0.00 | 0.00 | 23 | |
| 20260506175155 | 57 | 0 | 0.0 | 0.0 | 0.00 | 0.00 | 0.00 | 23 | |
| 20260506174155 | 57 | 0 | 0.0 | 0.0 | 0.00 | 0.00 | 0.00 | 23 | |
| 20260506174002 | 58 | 0 | 0.0 | 0.0 | 0.00 | 0.00 | 0.00 | 23 | |
| 20260506173156 | 58 | 0 | 0.0 | 0.0 | 0.00 | 0.00 | 0.00 | 23 | |
| 20260506172156 | 57 | 0 | 0.0 | 0.0 | 0.00 | 0.00 | 0.00 | 23 | |
| 20260506172003 | 57 | 0 | 0.0 | 0.0 | 0.00 | 0.00 | 0.00 | 23 | |
| 20260506171156 | 57 | 0 | 0.0 | 0.0 | 0.00 | 0.00 | 0.00 | 23 | |
| 20260506170156 | 58 | 0 | 0.0 | 0.0 | 0.00 | 0.00 | 0.00 | 23 | |
| 20260506170005 | 58 | 0 | 0.0 | 0.0 | 0.00 | 0.00 | 0.00 | 23 | |
| 20260506165156 | 58 | 0 | 0.0 | 0.0 | 0.00 | 0.00 | 0.00 | 23 | |
| 20260506164156 | 58 | 0 | 0.0 | 0.0 | 0.00 | 0.00 | 0.00 | 23 | |
| 20260506164002 | 58 | 0 | 0.0 | 0.0 | 0.00 | 0.00 | 0.00 | 23 | |
| 20260506163156 | 59 | 0 | 0.0 | 0.0 | 0.00 | 0.00 | 0.00 | 23 | |
| 20260506162156 | 60 | 0 | 0.0 | 0.0 | 0.00 | 0.00 | 0.00 | 22 | |
| 20260506162002 | 60 | 0 | 0.0 | 0.0 | 0.00 | 0.00 | 0.00 | 22 | |
| 20260506161155 | 60 | 0 | 0.0 | 0.0 | 0.00 | 0.00 | 0.00 | 22 | |
| 20260506160155 | 61 | 0 | 0.0 | 0.0 | 0.00 | 0.00 | 0.00 | 22 | |
| 20260506160002 | 61 | 0 | 0.0 | 0.0 | 0.00 | 0.00 | 0.00 | 22 | |
| 20260506155155 | 61 | 0 | 0.0 | 0.0 | 0.00 | 0.00 | 0.00 | 22 | |
| 20260506154155 | 60 | 0 | 0.0 | 0.0 | 0.00 | 0.00 | 0.00 | 22 | |
| 20260506153155 | 69 | 0 | 0.0 | 0.0 | 0.00 | 0.00 | 0.00 | 20 |